Time;durP1;ratioP1;P1;durP2;ratioP2;P2;SDS_P1;SDS_P2;PMS_P1;PMS_P2;Temp;Humidity;BMP_temperature;BMP_pressure;BME280_temperature;BME280_humidity;BME280_pressure;Samples;Min_cycle;Max_cycle;Signal;HPM_P1;HPM_P2
2023/07/04 00:01:10;;;;;;;5.60;1.35;;;12.90;99.90;;;;;;5027526;28;20107;-71
2023/07/04 00:03:38;;;;;;;2.63;1.15;;;12.90;99.90;;;;;;5021875;28;20037;-71
2023/07/04 00:06:06;;;;;;;5.07;0.98;;;12.80;99.90;;;;;;5027536;28;20049;-71
2023/07/04 00:08:35;;;;;;;7.18;1.13;;;12.90;99.90;;;;;;5007666;28;20033;-71
2023/07/04 00:11:03;;;;;;;5.75;1.05;;;12.80;99.90;;;;;;5026208;28;20099;-71
2023/07/04 00:13:31;;;;;;;6.93;0.98;;;12.80;99.90;;;;;;5025745;28;20120;-72
2023/07/04 00:15:57;;;;;;;3.47;0.95;;;12.80;99.90;;;;;;5019496;28;20049;-71
2023/07/04 00:18:25;;;;;;;3.38;0.80;;;12.80;99.90;;;;;;5026714;28;20127;-71
2023/07/04 00:20:54;;;;;;;2.05;0.90;;;12.80;99.90;;;;;;5025664;28;20049;-71
2023/07/04 00:23:31;;;;;;;4.07;1.33;;;12.80;99.90;;;;;;5020645;28;20029;-71
2023/07/04 00:25:57;;;;;;;4.40;0.85;;;12.70;99.90;;;;;;5009196;28;20076;-71
2023/07/04 00:28:25;;;;;;;3.55;0.90;;;12.70;99.90;;;;;;5024554;28;20070;-71
2023/07/04 00:30:54;;;;;;;8.50;1.15;;;12.70;99.90;;;;;;5025958;28;20486;-71
2023/07/04 00:33:24;;;;;;;5.78;1.00;;;12.70;99.90;;;;;;5025634;28;20083;-71
2023/07/04 00:36:00;;;;;;;4.28;1.30;;;12.70;99.90;;;;;;5021745;28;20045;-71
2023/07/04 00:38:26;;;;;;;3.50;1.15;;;12.70;99.90;;;;;;5024389;28;20235;-71
2023/07/04 00:40:52;;;;;;;;;;;12.70;99.90;;;;;;5025153;28;20124;-71
2023/07/04 00:43:17;;;;;;;5.20;0.80;;;12.70;99.90;;;;;;5025406;28;20356;-71
2023/07/04 00:45:44;;;;;;;2.53;0.70;;;12.60;99.90;;;;;;5026414;28;20506;-71
2023/07/04 00:48:15;;;;;;;1.95;1.23;;;12.60;99.90;;;;;;5027228;28;20139;-67
2023/07/04 00:50:45;;;;;;;3.00;0.88;;;12.60;99.90;;;;;;5029263;28;20398;-68
2023/07/04 00:53:12;;;;;;;1.67;0.98;;;12.60;99.90;;;;;;5044232;28;20515;-67
2023/07/04 00:55:41;;;;;;;4.10;0.95;;;12.60;99.90;;;;;;5029155;28;20041;-67
2023/07/04 00:58:07;;;;;;;2.90;1.00;;;12.60;99.90;;;;;;5029376;28;20510;-67
2023/07/04 01:00:37;;;;;;;4.32;1.33;;;12.60;99.90;;;;;;5029250;28;20049;-67
2023/07/04 01:03:18;;;;;;;5.97;1.27;;;12.60;99.90;;;;;;5027498;28;20041;-67
2023/07/04 01:06:12;;;;;;;4.80;1.10;;;12.60;99.90;;;;;;5032921;28;20046;-68
2023/07/04 01:08:43;;;;;;;3.65;1.00;;;12.60;99.90;;;;;;5032824;28;20045;-68
2023/07/04 01:11:21;;;;;;;3.25;1.15;;;12.60;99.90;;;;;;5033067;28;20041;-67
2023/07/04 01:13:47;;;;;;;3.38;1.10;;;12.60;99.90;;;;;;5016758;28;20381;-68
2023/07/04 01:16:17;;;;;;;1.42;0.77;;;12.60;99.90;;;;;;5032942;28;20068;-68
2023/07/04 01:18:53;;;;;;;3.58;0.80;;;12.60;99.90;;;;;;5031703;28;20121;-68
2023/07/04 01:21:23;;;;;;;2.72;1.08;;;12.60;99.90;;;;;;5032912;28;20080;-67
2023/07/04 01:24:12;;;;;;;2.22;1.00;;;12.60;99.90;;;;;;5032559;28;20046;-67
2023/07/04 01:26:42;;;;;;;3.28;0.95;;;12.60;99.90;;;;;;5032636;28;20037;-68
2023/07/04 01:29:11;;;;;;;3.42;1.02;;;12.60;99.90;;;;;;5032906;28;20041;-68
2023/07/04 01:31:37;;;;;;;3.42;1.05;;;12.60;99.90;;;;;;5014389;28;20041;-68
2023/07/04 01:34:04;;;;;;;3.03;1.13;;;12.60;99.90;;;;;;5030853;28;20069;-67
2023/07/04 01:36:34;;;;;;;3.25;1.20;;;12.60;99.90;;;;;;5030786;28;20095;-67
2023/07/04 01:39:00;;;;;;;5.05;1.30;;;12.60;99.90;;;;;;5030998;28;20102;-67
2023/07/04 01:41:28;;;;;;;2.35;0.90;;;12.60;99.90;;;;;;5032156;28;20038;-67
2023/07/04 01:43:59;;;;;;;9.35;1.27;;;12.60;99.90;;;;;;5030892;28;20124;-67
2023/07/04 01:46:25;;;;;;;5.90;1.15;;;12.60;99.90;;;;;;5030428;28;20042;-67
2023/07/04 01:48:51;;;;;;;2.17;1.30;;;12.60;99.90;;;;;;5030708;28;20056;-67
2023/07/04 01:51:25;;;;;;;;;;;12.60;99.90;;;;;;5031266;28;20102;-67
2023/07/04 01:53:51;;;;;;;4.90;0.88;;;12.60;99.90;;;;;;5032029;28;20027;-68
2023/07/04 01:56:17;;;;;;;4.45;1.13;;;12.60;99.90;;;;;;5030481;28;20061;-67
2023/07/04 01:58:42;;;;;;;5.57;1.20;;;12.60;99.90;;;;;;5031831;28;20484;-68
2023/07/04 02:01:08;;;;;;;2.67;1.25;;;12.60;99.90;;;;;;5032029;28;20267;-67
2023/07/04 02:03:36;;;;;;;4.40;1.30;;;12.70;99.90;;;;;;5030522;28;20050;-68
2023/07/04 02:06:02;;;;;;;4.15;1.27;;;12.60;99.90;;;;;;5029837;28;20151;-68
2023/07/04 02:08:28;;;;;;;3.22;1.17;;;12.60;99.90;;;;;;5027043;28;20126;-68
2023/07/04 02:10:54;;;;;;;3.92;0.93;;;12.70;99.90;;;;;;5024944;28;20140;-67
2023/07/04 02:13:19;;;;;;;3.53;1.20;;;12.70;99.90;;;;;;5020332;28;20045;-68
2023/07/04 02:15:45;;;;;;;4.72;1.15;;;12.70;99.90;;;;;;5026606;28;20135;-68
2023/07/04 02:18:11;;;;;;;4.47;1.23;;;12.70;99.90;;;;;;5029740;28;20041;-68
2023/07/04 02:20:37;;;;;;;3.92;1.02;;;12.70;99.90;;;;;;5034511;28;20597;-68
2023/07/04 02:23:02;;;;;;;2.92;0.70;;;12.80;99.90;;;;;;5033901;28;20449;-68
2023/07/04 02:25:28;;;;;;;2.22;0.82;;;12.80;99.90;;;;;;5036180;28;20126;-67
2023/07/04 02:27:54;;;;;;;4.68;1.05;;;12.90;99.90;;;;;;5039259;28;20415;-68
2023/07/04 02:30:19;;;;;;;3.40;1.10;;;12.90;99.90;;;;;;5031160;28;20041;-68
2023/07/04 02:32:45;;;;;;;3.78;1.10;;;12.90;99.90;;;;;;5037199;28;20075;-68
2023/07/04 02:35:14;;;;;;;1.60;0.70;;;12.90;99.90;;;;;;5028813;28;20049;-68
2023/07/04 02:37:40;;;;;;;4.18;1.00;;;12.90;99.90;;;;;;5031239;28;20049;-68
2023/07/04 02:40:07;;;;;;;5.20;0.80;;;13.00;99.90;;;;;;5030619;28;20091;-68
2023/07/04 02:42:32;;;;;;;3.47;1.23;;;13.00;99.90;;;;;;5018245;28;20293;-68
2023/07/04 02:44:58;;;;;;;2.15;0.60;;;12.90;99.90;;;;;;5027097;28;20049;-69
2023/07/04 02:47:26;;;;;;;3.85;0.80;;;12.90;99.90;;;;;;5043978;28;20110;-69
2023/07/04 02:49:55;;;;;;;3.42;0.68;;;12.90;99.90;;;;;;5029187;28;20077;-69
2023/07/04 02:52:21;;;;;;;2.67;0.70;;;12.80;99.90;;;;;;5034228;28;20048;-69
2023/07/04 02:54:47;;;;;;;4.43;0.85;;;12.80;99.90;;;;;;5028803;28;20494;-68
2023/07/04 02:57:16;;;;;;;2.80;0.65;;;12.80;99.90;;;;;;5027958;28;20610;-68
2023/07/04 02:59:42;;;;;;;2.28;0.63;;;12.70;99.90;;;;;;5038557;28;20102;-68
2023/07/04 03:02:08;;;;;;;3.03;0.88;;;12.70;99.90;;;;;;5030536;28;20052;-68
2023/07/04 03:04:34;;;;;;;2.95;0.73;;;12.60;99.90;;;;;;5035810;28;20457;-68
2023/07/04 03:06:59;;;;;;;2.92;0.50;;;12.60;99.90;;;;;;5028984;28;20114;-68
2023/07/04 03:09:25;;;;;;;1.80;0.60;;;12.60;99.90;;;;;;5025445;28;20045;-68
2023/07/04 03:11:51;;;;;;;1.45;0.57;;;12.50;99.90;;;;;;5038262;28;20049;-68
2023/07/04 03:14:17;;;;;;;1.92;0.57;;;12.50;99.90;;;;;;5030706;28;20060;-68
2023/07/04 03:16:43;;;;;;;4.28;0.90;;;12.40;99.90;;;;;;5017001;28;20416;-68
2023/07/04 03:19:08;;;;;;;1.27;0.70;;;12.40;99.90;;;;;;5015886;28;20052;-68
2023/07/04 03:21:34;;;;;;;3.08;0.80;;;12.40;99.90;;;;;;5029990;28;20282;-68
2023/07/04 03:24:00;;;;;;;3.15;0.90;;;12.40;99.90;;;;;;5034905;28;20045;-68
2023/07/04 03:26:26;;;;;;;2.38;0.70;;;12.40;99.90;;;;;;5037764;28;20112;-68
2023/07/04 03:28:51;;;;;;;2.92;0.63;;;12.40;99.90;;;;;;5028366;28;20064;-68
2023/07/04 03:31:18;;;;;;;3.53;0.60;;;12.40;99.90;;;;;;5028702;28;20040;-68
2023/07/04 03:33:44;;;;;;;;;;;12.40;99.90;;;;;;5033626;28;20056;-68
2023/07/04 03:36:10;;;;;;;4.25;0.95;;;12.40;99.90;;;;;;5029687;28;20422;-68
2023/07/04 03:38:36;;;;;;;4.43;0.70;;;12.40;99.90;;;;;;5029454;28;20072;-68
2023/07/04 03:41:02;;;;;;;2.35;0.70;;;12.40;99.90;;;;;;5020699;28;20053;-68
2023/07/04 03:43:28;;;;;;;4.75;1.20;;;12.40;99.90;;;;;;5019242;28;20049;-68
2023/07/04 03:45:53;;;;;;;2.15;0.70;;;12.40;99.90;;;;;;5029785;28;20049;-68
2023/07/04 03:48:20;;;;;;;2.25;0.93;;;12.40;99.90;;;;;;5029863;28;20495;-68
2023/07/04 03:50:46;;;;;;;3.75;0.82;;;12.40;99.90;;;;;;5011756;28;20041;-68
2023/07/04 03:53:12;;;;;;;2.65;0.63;;;12.40;99.90;;;;;;5028081;28;20427;-68
2023/07/04 03:55:38;;;;;;;2.08;0.75;;;12.40;99.90;;;;;;5028106;28;20075;-68
2023/07/04 03:58:03;;;;;;;3.50;1.08;;;12.40;99.90;;;;;;5028025;28;20045;-68
2023/07/04 04:00:29;;;;;;;2.05;0.85;;;12.40;99.90;;;;;;5030869;28;20044;-68
2023/07/04 04:02:55;;;;;;;3.22;0.98;;;12.50;99.90;;;;;;5034917;28;20052;-68
2023/07/04 04:05:21;;;;;;;1.70;0.70;;;12.50;99.90;;;;;;5029324;28;20041;-68
2023/07/04 04:07:50;;;;;;;1.73;0.70;;;12.50;99.90;;;;;;5029527;28;20053;-68
2023/07/04 04:10:34;;;;;;;1.65;1.30;;;12.50;99.90;;;;;;5029035;28;20694;-68
2023/07/04 04:13:19;;;;;;;4.43;0.90;;;12.60;99.90;;;;;;5027917;28;20095;-68
2023/07/04 04:16:04;;;;;;;2.00;0.80;;;12.60;99.90;;;;;;5023298;28;20506;-68
2023/07/04 04:18:29;;;;;;;2.92;0.63;;;12.60;99.90;;;;;;5027571;28;20088;-68
2023/07/04 04:20:55;;;;;;;2.20;0.80;;;12.60;99.90;;;;;;5027238;28;20131;-68
2023/07/04 04:23:22;;;;;;;2.53;0.90;;;12.60;99.90;;;;;;5029158;28;20509;-68
2023/07/04 04:25:48;;;;;;;1.88;0.70;;;12.70;99.90;;;;;;5019257;28;20045;-68
2023/07/04 04:28:14;;;;;;;2.47;0.90;;;12.70;99.90;;;;;;5027749;28;20355;-68
2023/07/04 04:30:40;;;;;;;3.80;0.88;;;12.70;99.90;;;;;;5011070;28;20061;-68
2023/07/04 04:33:06;;;;;;;3.42;0.70;;;12.70;99.90;;;;;;5010687;28;20053;-68
2023/07/04 04:35:33;;;;;;;2.13;0.82;;;12.80;99.90;;;;;;5028545;28;20128;-67
2023/07/04 04:37:58;;;;;;;;;;;12.80;99.90;;;;;;5027895;28;20405;-68
2023/07/04 04:40:24;;;;;;;4.35;0.88;;;12.80;99.90;;;;;;5050890;28;19971;-68
2023/07/04 04:42:55;;;;;;;3.58;0.68;;;12.80;99.90;;;;;;5027033;28;20141;-68
2023/07/04 04:45:22;;;;;;;2.65;0.90;;;12.80;99.90;;;;;;5008938;28;20100;-68
2023/07/04 04:47:52;;;;;;;2.53;1.05;;;12.80;99.90;;;;;;5039814;28;20471;-68
2023/07/04 04:50:23;;;;;;;3.30;0.85;;;12.90;99.90;;;;;;5037124;28;20112;-68
2023/07/04 04:52:49;;;;;;;5.35;0.90;;;13.00;99.90;;;;;;5014313;28;20037;-68
2023/07/04 04:55:16;;;;;;;2.42;0.93;;;13.00;99.90;;;;;;5028017;28;20085;-68
2023/07/04 04:57:42;;;;;;;2.47;1.13;;;13.00;99.90;;;;;;5028436;28;20038;-68
2023/07/04 05:00:09;;;;;;;7.22;1.48;;;13.10;99.90;;;;;;5036641;28;20272;-68
2023/07/04 05:02:36;;;;;;;2.83;1.02;;;13.10;99.90;;;;;;5028334;28;20057;-68
2023/07/04 05:05:02;;;;;;;5.28;0.90;;;13.10;99.90;;;;;;5028067;28;20056;-68
2023/07/04 05:07:28;;;;;;;3.75;0.90;;;13.20;99.90;;;;;;5027757;28;20056;-68
2023/07/04 05:09:55;;;;;;;3.35;1.08;;;13.20;99.90;;;;;;5024206;28;20073;-68
2023/07/04 05:12:22;;;;;;;1.95;0.70;;;13.20;99.90;;;;;;5028455;28;20506;-68
2023/07/04 05:14:47;;;;;;;4.43;0.98;;;13.30;99.90;;;;;;5034856;28;20112;-68
2023/07/04 05:17:13;;;;;;;5.88;0.90;;;13.30;99.90;;;;;;5026797;28;20043;-68
2023/07/04 05:19:39;;;;;;;4.70;1.05;;;13.30;99.90;;;;;;5027973;28;20041;-68
2023/07/04 05:22:05;;;;;;;1.20;0.77;;;13.40;99.90;;;;;;5026836;28;20041;-68
2023/07/04 05:24:31;;;;;;;3.47;0.95;;;13.40;99.90;;;;;;5018452;28;20389;-67
2023/07/04 05:26:57;;;;;;;2.60;1.00;;;13.40;99.90;;;;;;5027745;28;20060;-68
2023/07/04 05:29:23;;;;;;;2.38;1.25;;;13.50;99.90;;;;;;5026552;28;20489;-67
2023/07/04 05:31:49;;;;;;;3.97;1.00;;;13.50;99.90;;;;;;5023369;28;20048;-67
2023/07/04 05:34:14;;;;;;;2.50;0.75;;;13.50;99.90;;;;;;5031035;28;20120;-67
2023/07/04 05:36:41;;;;;;;2.30;0.80;;;13.60;99.90;;;;;;5026036;28;20045;-67
2023/07/04 05:39:06;;;;;;;;;;;13.70;99.90;;;;;;5028120;28;20460;-67
2023/07/04 05:41:36;;;;;;;3.35;0.98;;;13.70;99.90;;;;;;5030079;28;19956;-68
2023/07/04 05:44:08;;;;;;;3.65;0.60;;;13.70;99.90;;;;;;5027342;28;20125;-67
2023/07/04 05:46:35;;;;;;;2.00;0.77;;;13.80;99.90;;;;;;5026632;28;20423;-68
2023/07/04 05:49:02;;;;;;;1.83;0.60;;;13.80;99.90;;;;;;5026343;28;20045;-67
2023/07/04 05:51:29;;;;;;;5.65;0.70;;;13.90;99.90;;;;;;5027429;28;20061;-67
2023/07/04 05:53:55;;;;;;;4.05;0.88;;;14.00;99.90;;;;;;5005323;28;20041;-67
2023/07/04 05:56:24;;;;;;;2.47;0.65;;;14.00;99.90;;;;;;5028000;28;20041;-67
2023/07/04 05:58:55;;;;;;;2.92;0.80;;;14.10;99.90;;;;;;5034870;28;20415;-68
2023/07/04 06:01:43;;;;;;;3.05;0.80;;;14.10;99.90;;;;;;5025540;28;20484;-67
2023/07/04 06:04:11;;;;;;;3.53;0.65;;;14.20;99.90;;;;;;5025399;28;20041;-67
2023/07/04 06:06:38;;;;;;;4.25;0.70;;;14.20;99.90;;;;;;5026627;28;20049;-67
2023/07/04 06:09:07;;;;;;;5.18;0.80;;;14.30;99.90;;;;;;5027122;28;20045;-68
2023/07/04 06:11:35;;;;;;;4.85;0.65;;;14.30;99.90;;;;;;5026801;28;20036;-67
2023/07/04 06:14:05;;;;;;;7.07;1.15;;;14.40;99.90;;;;;;5037596;28;20077;-67
2023/07/04 06:16:33;;;;;;;6.38;1.00;;;14.40;99.90;;;;;;5025856;28;20116;-67
2023/07/04 06:18:59;;;;;;;6.60;0.80;;;14.50;99.90;;;;;;5028446;28;20085;-67
2023/07/04 06:21:25;;;;;;;3.60;1.42;;;14.60;99.90;;;;;;5025482;28;20092;-67
2023/07/04 06:23:54;;;;;;;3.72;0.82;;;14.60;99.90;;;;;;5029225;28;20403;-68
2023/07/04 06:26:20;;;;;;;3.38;0.98;;;14.60;99.90;;;;;;5030869;28;20109;-68
2023/07/04 06:28:48;;;;;;;3.10;0.60;;;14.70;99.90;;;;;;5029373;28;20156;-68
2023/07/04 06:31:15;;;;;;;2.42;0.60;;;14.70;99.90;;;;;;5024327;28;20403;-68
2023/07/04 06:33:41;;;;;;;5.38;0.70;;;14.80;99.90;;;;;;5029026;28;20483;-68
2023/07/04 06:36:12;;;;;;;2.03;0.70;;;14.90;99.90;;;;;;5026455;28;20087;-68
2023/07/04 06:38:38;;;;;;;2.72;0.68;;;14.90;99.90;;;;;;5045709;28;20042;-68
2023/07/04 06:41:06;;;;;;;3.15;0.70;;;14.90;99.90;;;;;;5029577;28;20048;-68
2023/07/04 06:43:33;;;;;;;5.70;1.08;;;15.00;99.90;;;;;;5029839;28;20424;-68
2023/07/04 06:46:00;;;;;;;6.88;1.08;;;15.00;99.90;;;;;;5029648;28;20071;-67
2023/07/04 06:48:27;;;;;;;5.63;1.25;;;15.10;99.90;;;;;;5025117;28;20050;-67
2023/07/04 06:50:59;;;;;;;3.08;0.68;;;15.10;99.90;;;;;;5030287;28;20038;-68
2023/07/04 06:53:25;;;;;;;5.43;0.85;;;15.10;99.90;;;;;;5028720;28;20371;-68
2023/07/04 06:55:51;;;;;;;;;;;15.20;99.90;;;;;;5028101;28;20132;-67
2023/07/04 06:58:17;;;;;;;1.48;0.50;;;15.20;99.90;;;;;;5030936;28;20080;-68
2023/07/04 07:00:42;;;;;;;2.58;0.77;;;15.30;99.90;;;;;;5029798;28;20120;-68
2023/07/04 07:03:08;;;;;;;3.15;0.95;;;15.40;99.90;;;;;;5029142;28;20315;-68
2023/07/04 07:05:41;;;;;;;3.13;0.85;;;15.40;99.90;;;;;;5030648;28;20041;-68
2023/07/04 07:08:07;;;;;;;2.90;0.73;;;15.50;99.90;;;;;;5029168;28;20097;-68
2023/07/04 07:10:36;;;;;;;3.90;0.88;;;15.50;99.90;;;;;;5038405;28;20041;-67
2023/07/04 07:13:05;;;;;;;2.05;0.65;;;15.50;99.90;;;;;;5028701;28;20053;-68
2023/07/04 07:15:31;;;;;;;3.28;0.70;;;15.50;99.90;;;;;;5028998;28;20044;-68
2023/07/04 07:17:57;;;;;;;2.95;0.65;;;15.50;99.90;;;;;;5034349;28;20041;-68
2023/07/04 07:20:23;;;;;;;4.50;0.77;;;15.50;99.90;;;;;;5043987;28;20045;-68
2023/07/04 07:22:48;;;;;;;3.65;1.00;;;15.60;99.90;;;;;;5032227;28;20073;-68
2023/07/04 07:25:14;;;;;;;3.47;0.77;;;15.70;99.90;;;;;;5050088;28;20041;-68
2023/07/04 07:27:40;;;;;;;1.70;0.60;;;15.70;99.90;;;;;;5031158;28;20491;-68
2023/07/04 07:30:06;;;;;;;3.67;1.02;;;15.70;99.90;;;;;;5037490;28;20041;-68
2023/07/04 07:32:32;;;;;;;4.95;0.80;;;15.80;99.90;;;;;;5030210;28;20091;-67
2023/07/04 07:34:58;;;;;;;2.22;0.82;;;15.80;99.90;;;;;;5028506;28;20041;-68
2023/07/04 07:37:24;;;;;;;5.60;0.77;;;15.80;99.90;;;;;;5022415;28;20124;-67
2023/07/04 07:39:51;;;;;;;4.00;0.80;;;15.80;99.90;;;;;;5029151;28;20049;-67
2023/07/04 07:42:17;;;;;;;5.78;0.85;;;15.80;99.90;;;;;;5028776;28;20543;-68
2023/07/04 07:44:42;;;;;;;3.65;0.60;;;15.80;99.90;;;;;;5028562;28;20132;-68
2023/07/04 07:47:10;;;;;;;7.10;0.90;;;15.80;99.90;;;;;;5028794;28;20049;-67
2023/07/04 07:49:37;;;;;;;2.75;0.65;;;15.80;99.90;;;;;;5032881;28;20045;-68
2023/07/04 07:52:03;;;;;;;5.93;0.70;;;15.90;99.90;;;;;;5024066;28;20053;-68
2023/07/04 07:54:28;;;;;;;3.97;0.90;;;15.90;99.90;;;;;;5034549;28;20064;-68
2023/07/04 07:56:54;;;;;;;4.88;0.85;;;16.00;99.90;;;;;;5039005;28;20045;-68
2023/07/04 07:59:21;;;;;;;3.42;0.90;;;16.00;99.90;;;;;;5048185;28;20250;-68
2023/07/04 08:01:48;;;;;;;3.35;0.70;;;16.10;99.90;;;;;;5039378;28;20495;-68
2023/07/04 08:04:14;;;;;;;2.75;0.70;;;16.20;99.90;;;;;;5023678;28;20127;-68
2023/07/04 08:09:10;;;;;;;2.65;1.35;;;16.30;99.90;;;;;;5072481;28;20192;-70
2023/07/04 08:11:37;;;;;;;5.93;0.80;;;16.30;99.90;;;;;;5072164;28;20039;-69
2023/07/04 08:14:03;;;;;;;6.72;0.95;;;16.30;99.90;;;;;;5066894;28;20172;-69
2023/07/04 08:16:40;;;;;;;5.75;1.02;;;16.30;99.90;;;;;;5058561;28;20111;-69
2023/07/04 08:19:05;;;;;;;6.88;1.23;;;16.30;99.90;;;;;;5056751;28;20579;-70
2023/07/04 08:21:31;;;;;;;4.30;1.27;;;16.40;99.90;;;;;;5062744;28;20086;-69
2023/07/04 08:23:58;;;;;;;6.72;1.33;;;16.30;99.90;;;;;;5033919;28;20532;-70
2023/07/04 08:26:25;;;;;;;5.68;1.13;;;16.30;99.90;;;;;;5062547;28;20040;-69
2023/07/04 08:28:56;;;;;;;9.57;1.77;;;16.30;99.90;;;;;;5060076;28;20125;-69
2023/07/04 08:31:23;;;;;;;10.25;2.13;;;16.30;99.90;;;;;;5055412;28;20044;-69
2023/07/04 08:33:50;;;;;;;9.48;1.38;;;16.40;99.90;;;;;;5045139;28;20060;-68
2023/07/04 08:36:16;;;;;;;5.35;1.15;;;16.30;99.90;;;;;;5060508;28;20049;-69
2023/07/04 08:38:43;;;;;;;6.07;1.38;;;16.30;99.90;;;;;;5059319;28;20063;-69
2023/07/04 08:41:21;;;;;;;9.40;1.83;;;16.30;99.90;;;;;;5056050;28;20043;-69
2023/07/04 08:43:56;;;;;;;6.00;1.50;;;16.50;99.90;;;;;;5046301;28;20044;-70
2023/07/04 08:46:22;;;;;;;11.10;1.30;;;16.50;99.90;;;;;;5046796;28;20478;-69
2023/07/04 08:48:48;;;;;;;13.45;1.88;;;16.60;99.90;;;;;;5060395;28;20186;-70
2023/07/04 08:51:23;;;;;;;8.10;1.58;;;16.60;99.90;;;;;;5061933;28;20068;-69
2023/07/04 08:53:56;;;;;;;6.82;1.10;;;16.60;99.90;;;;;;5058678;28;20053;-69
2023/07/04 08:56:33;;;;;;;3.60;1.40;;;16.70;99.90;;;;;;5042841;28;20048;-69
2023/07/04 08:59:08;;;;;;;7.53;1.40;;;16.80;99.90;;;;;;5047859;28;20051;-69
2023/07/04 09:01:51;;;;;;;7.03;1.63;;;16.90;99.90;;;;;;5062675;28;20211;-70
2023/07/04 09:04:32;;;;;;;7.03;1.58;;;17.10;99.90;;;;;;5059035;28;20389;-70
2023/07/04 09:07:32;;;;;;;4.60;1.50;;;17.20;99.90;;;;;;5060349;28;20045;-70
2023/07/04 09:10:15;;;;;;;6.18;1.52;;;17.40;99.90;;;;;;5031767;28;20689;-70
2023/07/04 09:12:43;;;;;;;4.18;1.17;;;17.50;99.90;;;;;;5041382;28;20056;-70
2023/07/04 09:15:20;;;;;;;9.32;1.45;;;17.50;99.90;;;;;;5059950;28;20487;-70
2023/07/04 09:18:08;;;;;;;9.70;1.30;;;17.40;99.90;;;;;;5050187;28;20048;-71
2023/07/04 09:20:40;;;;;;;5.97;1.13;;;17.40;99.90;;;;;;5047223;28;20105;-70
2023/07/04 09:23:13;;;;;;;6.20;1.10;;;17.40;99.90;;;;;;5057377;28;20040;-70
2023/07/04 09:25:39;;;;;;;4.82;1.27;;;17.40;99.90;;;;;;5062025;28;20139;-71
2023/07/04 09:28:05;;;;;;;4.00;1.10;;;17.50;99.90;;;;;;5046876;28;20513;-70
2023/07/04 09:30:32;;;;;;;9.25;1.45;;;17.50;99.90;;;;;;5064447;28;20141;-70
2023/07/04 09:32:58;;;;;;;6.65;1.15;;;17.50;99.90;;;;;;5048661;28;20045;-70
2023/07/04 09:35:24;;;;;;;4.05;0.82;;;17.60;99.90;;;;;;5059886;28;20043;-69
2023/07/04 09:38:00;;;;;;;4.47;1.15;;;17.70;99.90;;;;;;5063730;28;20055;-70
2023/07/04 09:40:44;;;;;;;3.88;0.85;;;17.80;99.90;;;;;;5054282;28;20529;-70
2023/07/04 09:43:11;;;;;;;5.25;1.05;;;17.90;99.90;;;;;;5045825;28;20055;-71
2023/07/04 09:45:38;;;;;;;6.72;1.05;;;17.90;99.90;;;;;;5065429;28;20439;-70
2023/07/04 09:48:05;;;;;;;;;;;18.10;99.90;;;;;;5056927;28;20052;-69
2023/07/04 09:50:34;;;;;;;6.03;0.90;;;18.30;99.90;;;;;;5065461;28;19916;-70
2023/07/04 09:53:10;;;;;;;3.97;0.85;;;18.30;99.90;;;;;;5064470;28;20418;-70
2023/07/04 09:55:37;;;;;;;9.20;1.20;;;18.30;99.90;;;;;;5062780;28;20032;-70
2023/07/04 09:58:22;;;;;;;6.93;1.13;;;18.20;99.90;;;;;;5056379;28;20051;-70
2023/07/04 10:01:08;;;;;;;6.07;1.08;;;18.20;99.90;;;;;;5059197;28;20122;-69
2023/07/04 10:03:39;;;;;;;4.32;1.50;;;18.30;99.90;;;;;;5057300;28;20120;-69
2023/07/04 10:06:06;;;;;;;5.05;1.05;;;18.30;99.90;;;;;;5062660;28;20052;-70
2023/07/04 10:08:48;;;;;;;7.22;1.10;;;18.40;99.90;;;;;;5065078;28;20036;-70
2023/07/04 10:11:30;;;;;;;3.72;0.77;;;18.60;99.90;;;;;;5065466;28;20039;-70
2023/07/04 10:14:03;;;;;;;5.07;1.27;;;18.70;99.90;;;;;;5055095;28;20052;-70
2023/07/04 10:16:29;;;;;;;7.30;1.52;;;18.80;99.90;;;;;;5064536;28;20037;-70
2023/07/04 10:19:09;;;;;;;5.03;1.63;;;18.90;99.90;;;;;;5063084;28;20041;-70
2023/07/04 10:21:43;;;;;;;7.28;1.50;;;19.00;99.90;;;;;;5060930;28;20044;-70
2023/07/04 10:24:12;;;;;;;6.88;1.30;;;18.90;99.90;;;;;;5055212;28;20045;-70
2023/07/04 10:26:38;;;;;;;3.47;1.20;;;18.80;99.90;;;;;;5048258;28;20037;-71
2023/07/04 10:29:04;;;;;;;;;;;18.70;99.90;;;;;;5065295;28;20513;-69
2023/07/04 10:31:30;;;;;;;5.50;1.20;;;18.60;99.90;;;;;;5057426;28;19925;-70
2023/07/04 10:34:01;;;;;;;6.90;1.50;;;18.70;99.90;;;;;;5049176;28;20513;-70
2023/07/04 10:36:32;;;;;;;3.53;0.70;;;18.90;99.90;;;;;;5066114;28;20040;-70
2023/07/04 10:39:06;;;;;;;5.03;1.00;;;19.00;99.90;;;;;;5063886;28;20044;-70
2023/07/04 10:42:07;;;;;;;6.43;1.23;;;19.10;99.90;;;;;;5059472;28;20040;-70
2023/07/04 10:44:37;;;;;;;5.15;1.00;;;19.30;99.90;;;;;;5056738;28;20032;-70
2023/07/04 10:47:09;;;;;;;4.57;1.15;;;19.30;99.90;;;;;;5062842;28;20601;-70
2023/07/04 10:49:52;;;;;;;5.55;1.17;;;19.30;99.90;;;;;;5064352;28;20059;-70
2023/07/04 10:52:22;;;;;;;4.80;0.90;;;19.20;99.90;;;;;;5065860;28;20040;-70
2023/07/04 10:54:47;;;;;;;5.45;1.23;;;19.20;99.90;;;;;;5064186;28;20037;-71
2023/07/04 10:57:22;;;;;;;12.40;1.80;;;19.30;99.90;;;;;;5060471;28;20494;-71
2023/07/04 10:59:50;;;;;;;4.53;0.95;;;19.30;99.90;;;;;;5058619;28;20107;-70
2023/07/04 11:02:29;;;;;;;5.90;0.82;;;19.20;99.90;;;;;;5064425;28;20048;-70
2023/07/04 11:05:06;;;;;;;5.80;1.35;;;19.00;99.90;;;;;;5063652;28;20044;-70
2023/07/04 11:07:34;;;;;;;5.93;1.17;;;18.90;99.90;;;;;;5059263;28;20082;-71
2023/07/04 11:10:04;;;;;;;4.57;1.00;;;18.70;99.90;;;;;;5057003;28;20037;-70
2023/07/04 11:12:35;;;;;;;5.43;1.30;;;18.70;99.90;;;;;;5065483;28;20119;-70
2023/07/04 11:15:17;;;;;;;4.47;1.30;;;18.70;99.90;;;;;;5062931;28;20486;-71
2023/07/04 11:17:45;;;;;;;8.95;1.30;;;18.70;99.90;;;;;;5058110;28;20391;-71
2023/07/04 11:20:22;;;;;;;4.57;1.08;;;18.80;99.90;;;;;;5045397;28;20048;-70
2023/07/04 11:22:51;;;;;;;9.15;1.80;;;18.80;99.90;;;;;;5048349;28;20048;-70
2023/07/04 11:25:41;;;;;;;8.00;1.17;;;18.80;99.90;;;;;;5051801;28;20040;-70
2023/07/04 11:28:43;;;;;;;3.65;1.05;;;18.90;99.90;;;;;;5063273;28;20191;-70
2023/07/04 11:31:30;;;;;;;5.95;1.63;;;18.90;99.90;;;;;;5061117;28;20037;-70
2023/07/04 11:33:56;;;;;;;;;;;18.90;99.90;;;;;;5051254;28;20383;-70
2023/07/04 11:36:40;;;;;;;5.75;1.38;;;18.90;99.90;;;;;;5064936;28;19916;-71
2023/07/04 11:39:31;;;;;;;6.53;0.98;;;18.90;99.90;;;;;;5062796;28;20548;-70
2023/07/04 11:41:58;;;;;;;5.47;1.17;;;19.00;99.90;;;;;;5056144;28;20056;-71
2023/07/04 11:44:31;;;;;;;6.75;1.20;;;19.10;99.90;;;;;;5048528;28;20116;-72
2023/07/04 11:47:09;;;;;;;3.78;1.00;;;19.10;99.90;;;;;;5062828;28;20048;-70
2023/07/04 11:49:36;;;;;;;5.25;1.30;;;19.20;99.90;;;;;;5064205;28;20119;-71
2023/07/04 11:52:09;;;;;;;;;;;19.40;99.90;;;;;;5055576;28;20069;-70
2023/07/04 11:54:35;;;;;;;8.27;1.15;;;19.50;99.90;;;;;;5065054;28;19916;-71
2023/07/04 11:57:01;;;;;;;;;;;19.70;99.90;;;;;;5047015;28;20046;-70
2023/07/04 11:59:38;;;;;;;6.05;1.23;;;19.80;99.90;;;;;;5066565;28;19920;-70
2023/07/04 12:02:29;;;;;;;5.80;1.20;;;19.80;99.90;;;;;;5060520;28;20051;-70
2023/07/04 12:04:56;;;;;;;4.82;1.42;;;19.70;99.90;;;;;;5051111;28;20174;-70
2023/07/04 12:08:04;;;;;;;3.17;1.35;;;19.70;99.90;;;;;;5066285;28;20510;-70
2023/07/04 12:10:30;;;;;;;3.80;0.90;;;19.60;99.90;;;;;;4983130;28;20042;-70
2023/07/04 12:13:02;;;;;;;7.53;1.20;;;19.40;99.90;;;;;;4999474;28;20077;-70
2023/07/04 12:15:31;;;;;;;5.93;1.27;;;19.40;99.90;;;;;;5036486;28;20091;-71
2023/07/04 12:17:59;;;;;;;5.43;1.10;;;19.50;99.90;;;;;;5063222;28;20048;-71
2023/07/04 12:20:30;;;;;;;5.25;1.10;;;19.60;99.90;;;;;;5057197;28;20036;-70
2023/07/04 12:22:59;;;;;;;5.50;1.02;;;19.70;99.90;;;;;;5050392;28;20047;-70
2023/07/04 12:25:34;;;;;;;12.82;1.23;;;19.80;99.90;;;;;;5064592;28;20056;-70
2023/07/04 12:28:03;;;;;;;5.03;1.00;;;19.90;99.90;;;;;;5065208;28;20259;-70
2023/07/04 12:30:30;;;;;;;9.45;1.15;;;20.00;99.90;;;;;;5058636;28;20107;-71
2023/07/04 12:32:56;;;;;;;9.52;1.38;;;20.00;99.90;;;;;;5056787;28;20063;-70
2023/07/04 12:35:32;;;;;;;4.70;0.90;;;20.10;99.90;;;;;;5057519;28;20044;-70
2023/07/04 12:37:58;;;;;;;8.00;1.40;;;20.30;99.90;;;;;;5049514;28;20117;-70
2023/07/04 12:40:28;;;;;;;4.55;1.10;;;20.50;99.90;;;;;;5064531;28;20103;-70
2023/07/04 12:42:59;;;;;;;6.60;1.17;;;20.70;99.90;;;;;;5065835;28;20447;-71
2023/07/04 12:45:27;;;;;;;3.83;1.20;;;20.80;99.90;;;;;;5031902;28;20045;-70
2023/07/04 12:47:58;;;;;;;8.00;1.20;;;20.70;99.90;;;;;;5058178;28;20040;-70
2023/07/04 12:50:25;;;;;;;5.72;1.23;;;20.40;99.90;;;;;;5057880;28;20036;-70
2023/07/04 12:52:51;;;;;;;5.80;1.00;;;20.20;99.90;;;;;;5066238;28;20512;-70
2023/07/04 12:55:26;;;;;;;3.10;1.00;;;20.10;99.90;;;;;;5057880;28;20089;-70
2023/07/04 12:57:52;;;;;;;7.38;1.50;;;20.10;99.90;;;;;;5064817;28;20048;-71
2023/07/04 13:00:31;;;;;;;4.70;1.38;;;20.10;99.90;;;;;;5066523;28;20082;-70
2023/07/04 13:03:11;;;;;;;4.80;1.13;;;20.10;99.00;;;;;;5069465;28;20547;-70
2023/07/04 13:05:42;;;;;;;4.30;1.00;;;20.00;99.40;;;;;;5059692;28;20406;-71